Time;durP1;ratioP1;P1;durP2;ratioP2;P2;SDS_P1;SDS_P2;PMS_P1;PMS_P2;Temp;Humidity;BMP_temperature;BMP_pressure;BME280_temperature;BME280_humidity;BME280_pressure;Samples;Min_cycle;Max_cycle;Signal;HPM_P1;HPM_P2
2022/02/14 00:01:50;;;;;;;;;5.00;4.33;;;;;;;;5093848;27;45385;-90
2022/02/14 00:04:15;;;;;;;;;5.00;4.00;;;;;;;;5075318;27;45496;-90
2022/02/14 00:06:41;;;;;;;;;4.33;4.33;;;;;;;;5093790;27;45558;-90
2022/02/14 00:09:06;;;;;;;;;4.33;3.67;;;;;;;;5075990;27;47429;-90
2022/02/14 00:11:31;;;;;;;;;5.00;4.00;;;;;;;;5077345;27;45675;-90
2022/02/14 00:13:56;;;;;;;;;4.67;4.67;;;;;;;;5093266;27;45514;-90
2022/02/14 00:16:21;;;;;;;;;6.33;6.33;;;;;;;;5095649;27;45467;-90
2022/02/14 00:18:47;;;;;;;;;5.67;3.67;;;;;;;;5092142;27;47044;-90
2022/02/14 00:21:12;;;;;;;;;4.00;4.00;;;;;;;;5075053;27;45451;-91
2022/02/14 00:23:37;;;;;;;;;6.67;6.00;;;;;;;;5080786;27;45478;-90
2022/02/14 00:26:03;;;;;;;;;4.67;4.33;;;;;;;;5103007;27;45420;-90
2022/02/14 00:28:28;;;;;;;;;5.33;4.00;;;;;;;;5091573;27;47497;-91
2022/02/14 00:30:53;;;;;;;;;4.33;3.00;;;;;;;;5097255;27;45276;-90
2022/02/14 00:33:19;;;;;;;;;6.67;5.67;;;;;;;;5077891;27;45541;-90
2022/02/14 00:35:45;;;;;;;;;5.00;5.00;;;;;;;;5100679;27;45424;-91
2022/02/14 00:38:12;;;;;;;;;6.00;4.33;;;;;;;;5110205;27;45253;-90
2022/02/14 00:40:37;;;;;;;;;5.00;5.00;;;;;;;;5128077;27;44917;-90
2022/02/14 00:43:05;;;;;;;;;3.67;3.67;;;;;;;;5114258;27;45290;-90
2022/02/14 00:45:30;;;;;;;;;4.67;4.33;;;;;;;;5089574;27;45745;-91
2022/02/14 00:47:56;;;;;;;;;4.00;4.00;;;;;;;;5077800;27;47261;-90
2022/02/14 00:50:21;;;;;;;;;5.00;5.00;;;;;;;;5077315;27;45482;-89
2022/02/14 00:52:46;;;;;;;;;6.00;4.00;;;;;;;;5095863;27;45466;-91
2022/02/14 00:55:13;;;;;;;;;7.67;4.67;;;;;;;;5078810;27;46042;-91
2022/02/14 00:57:38;;;;;;;;;4.00;4.00;;;;;;;;5108518;27;46500;-90
2022/02/14 01:00:04;;;;;;;;;6.00;5.00;;;;;;;;5097127;27;45470;-91
2022/02/14 01:02:30;;;;;;;;;6.00;4.00;;;;;;;;5106383;27;45312;-90
2022/02/14 01:04:55;;;;;;;;;4.33;4.33;;;;;;;;5093613;27;45398;-90
2022/02/14 01:07:20;;;;;;;;;4.33;4.33;;;;;;;;5103248;27;45518;-91
2022/02/14 01:09:45;;;;;;;;;4.67;3.00;;;;;;;;5109197;27;45551;-91
2022/02/14 01:12:10;;;;;;;;;4.33;3.33;;;;;;;;5110904;27;45386;-91
2022/02/14 01:14:36;;;;;;;;;6.33;5.00;;;;;;;;5097601;27;45824;-90
2022/02/14 01:17:01;;;;;;;;;4.00;3.67;;;;;;;;5095032;27;45351;-90
2022/02/14 01:19:26;;;;;;;;;6.00;5.33;;;;;;;;5096525;27;45537;-90
2022/02/14 01:21:52;;;;;;;;;3.00;3.00;;;;;;;;5091774;27;45670;-91
2022/02/14 01:24:17;;;;;;;;;6.33;6.00;;;;;;;;5097402;27;45523;-91
2022/02/14 01:26:42;;;;;;;;;5.33;5.33;;;;;;;;5102810;27;45821;-91
2022/02/14 01:29:08;;;;;;;;;7.67;5.67;;;;;;;;5093510;27;45772;-90
2022/02/14 01:31:33;;;;;;;;;5.00;4.00;;;;;;;;5094823;27;45756;-91
2022/02/14 01:33:58;;;;;;;;;5.67;4.00;;;;;;;;5093786;27;45564;-90
2022/02/14 01:36:23;;;;;;;;;6.00;6.00;;;;;;;;5108568;27;46556;-90
2022/02/14 01:38:49;;;;;;;;;3.33;3.33;;;;;;;;5100304;27;45891;-91
2022/02/14 01:41:14;;;;;;;;;4.67;4.00;;;;;;;;5095562;27;48956;-90
2022/02/14 01:43:40;;;;;;;;;7.33;5.33;;;;;;;;5092984;27;45808;-90
2022/02/14 01:46:05;;;;;;;;;6.00;6.00;;;;;;;;5080902;27;47091;-89
2022/02/14 01:48:31;;;;;;;;;5.33;5.00;;;;;;;;5089705;27;45574;-90
2022/02/14 01:50:56;;;;;;;;;5.67;4.67;;;;;;;;5108408;27;45445;-90
2022/02/14 01:53:23;;;;;;;;;4.33;4.33;;;;;;;;5094391;27;45723;-90
2022/02/14 01:55:48;;;;;;;;;4.00;2.67;;;;;;;;5074010;27;47411;-90
2022/02/14 01:58:13;;;;;;;;;4.00;4.00;;;;;;;;5075631;27;45383;-90
2022/02/14 02:00:39;;;;;;;;;5.00;5.00;;;;;;;;5089488;27;45481;-90
2022/02/14 02:03:04;;;;;;;;;5.33;4.33;;;;;;;;5069105;27;45799;-91
2022/02/14 02:05:29;;;;;;;;;7.33;5.00;;;;;;;;5066275;27;46930;-90
2022/02/14 02:07:54;;;;;;;;;5.00;5.00;;;;;;;;5088201;27;45459;-90
2022/02/14 02:10:20;;;;;;;;;7.33;6.00;;;;;;;;5086757;27;45400;-91
2022/02/14 02:12:49;;;;;;;;;8.33;6.00;;;;;;;;5089044;27;45937;-91
2022/02/14 02:15:14;;;;;;;;;5.67;5.00;;;;;;;;5094032;27;46144;-90
2022/02/14 02:17:40;;;;;;;;;4.00;4.00;;;;;;;;5079196;27;45478;-89
2022/02/14 02:20:07;;;;;;;;;5.00;5.00;;;;;;;;5095245;27;45474;-90
2022/02/14 02:22:33;;;;;;;;;5.00;4.33;;;;;;;;5101523;27;45380;-90
2022/02/14 02:24:59;;;;;;;;;6.67;6.67;;;;;;;;5093262;27;46791;-90
2022/02/14 02:27:25;;;;;;;;;7.00;5.67;;;;;;;;5082395;27;47119;-90
2022/02/14 02:29:55;;;;;;;;;6.67;5.67;;;;;;;;5092880;27;45537;-90
2022/02/14 02:32:21;;;;;;;;;5.33;5.33;;;;;;;;5092803;27;45597;-90
2022/02/14 02:34:46;;;;;;;;;3.00;3.00;;;;;;;;5093848;27;47086;-90
2022/02/14 02:37:12;;;;;;;;;8.67;6.00;;;;;;;;5080879;27;45450;-90
2022/02/14 02:39:38;;;;;;;;;6.00;3.00;;;;;;;;5076916;27;45412;-90
2022/02/14 02:42:04;;;;;;;;;4.00;3.67;;;;;;;;5093992;27;45559;-90
2022/02/14 02:44:30;;;;;;;;;4.33;4.33;;;;;;;;5095479;27;46307;-90
2022/02/14 02:46:55;;;;;;;;;5.33;5.33;;;;;;;;5094582;27;45439;-90
2022/02/14 02:49:21;;;;;;;;;6.67;5.67;;;;;;;;5082009;27;45438;-88
2022/02/14 02:51:48;;;;;;;;;6.00;5.00;;;;;;;;5078397;27;45720;-90
2022/02/14 02:54:14;;;;;;;;;4.00;4.00;;;;;;;;5078339;27;48382;-90
2022/02/14 02:56:41;;;;;;;;;6.33;5.00;;;;;;;;5103958;27;45482;-90
2022/02/14 02:59:08;;;;;;;;;5.00;5.00;;;;;;;;5096779;27;45617;-90
2022/02/14 03:01:33;;;;;;;;;3.33;2.67;;;;;;;;5097572;27;45609;-89
2022/02/14 03:04:00;;;;;;;;;5.67;5.67;;;;;;;;5094435;27;48294;-89
2022/02/14 03:06:25;;;;;;;;;4.00;4.00;;;;;;;;5090164;27;45838;-89
2022/02/14 03:08:50;;;;;;;;;8.67;6.33;;;;;;;;5087188;27;45794;-90
2022/02/14 03:11:16;;;;;;;;;5.00;5.00;;;;;;;;5105223;27;45688;-90
2022/02/14 03:13:42;;;;;;;;;4.33;4.33;;;;;;;;5100397;27;46347;-89
2022/02/14 03:16:07;;;;;;;;;5.00;5.00;;;;;;;;5103303;27;45631;-88
2022/02/14 03:18:32;;;;;;;;;5.00;4.00;;;;;;;;5097367;27;45467;-90
2022/02/14 03:20:57;;;;;;;;;4.00;4.00;;;;;;;;5109957;27;45490;-90
2022/02/14 03:23:23;;;;;;;;;4.67;4.67;;;;;;;;5104498;27;46996;-91
2022/02/14 03:25:48;;;;;;;;;6.00;4.00;;;;;;;;5094543;27;45912;-92
2022/02/14 03:28:13;;;;;;;;;6.33;5.00;;;;;;;;5093722;27;45829;-92
2022/02/14 03:30:38;;;;;;;;;5.00;4.67;;;;;;;;5114989;27;45712;-93
2022/02/14 03:33:03;;;;;;;;;7.00;5.33;;;;;;;;5106558;27;45543;-92
2022/02/14 03:35:29;;;;;;;;;2.33;2.33;;;;;;;;5098406;27;45404;-92
2022/02/14 03:37:56;;;;;;;;;3.00;3.00;;;;;;;;5089621;27;45433;-90
2022/02/14 03:40:21;;;;;;;;;3.00;2.00;;;;;;;;5098539;27;45503;-93
2022/02/14 03:42:46;;;;;;;;;4.67;3.33;;;;;;;;5096690;27;47039;-92
2022/02/14 03:45:12;;;;;;;;;3.00;1.67;;;;;;;;5097274;27;45641;-92
2022/02/14 03:47:37;;;;;;;;;2.67;2.67;;;;;;;;5106338;27;45456;-91
2022/02/14 03:50:02;;;;;;;;;4.00;2.00;;;;;;;;5095865;27;45533;-92
2022/02/14 03:52:27;;;;;;;;;3.33;2.67;;;;;;;;5096708;27;47107;-93
2022/02/14 03:54:53;;;;;;;;;2.00;2.00;;;;;;;;5083328;27;45510;-92
2022/02/14 03:57:18;;;;;;;;;2.33;1.67;;;;;;;;5078244;27;45519;-92
2022/02/14 03:59:43;;;;;;;;;1.67;1.00;;;;;;;;5077676;27;45429;-92
2022/02/14 04:02:09;;;;;;;;;2.00;2.00;;;;;;;;5075263;27;46000;-92
2022/02/14 04:04:34;;;;;;;;;0.00;0.00;;;;;;;;5096843;27;45453;-93
2022/02/14 04:06:59;;;;;;;;;0.33;0.00;;;;;;;;5077854;27;45308;-93
2022/02/14 04:09:24;;;;;;;;;0.00;0.00;;;;;;;;5071721;27;45512;-93
2022/02/14 04:11:50;;;;;;;;;1.00;0.00;;;;;;;;5078359;27;47154;-92
2022/02/14 04:14:15;;;;;;;;;0.00;0.00;;;;;;;;5078046;27;45524;-92
2022/02/14 04:16:40;;;;;;;;;0.00;0.00;;;;;;;;5095732;27;45368;-92
2022/02/14 04:19:05;;;;;;;;;0.00;0.00;;;;;;;;5108293;27;44819;-92
2022/02/14 04:21:31;;;;;;;;;0.00;0.00;;;;;;;;5106317;27;47125;-91
2022/02/14 04:23:56;;;;;;;;;0.00;0.00;;;;;;;;5104340;27;45383;-92
2022/02/14 04:26:21;;;;;;;;;0.00;0.00;;;;;;;;5084564;27;45412;-91
2022/02/14 04:28:46;;;;;;;;;1.00;0.00;;;;;;;;5075526;27;50895;-92
2022/02/14 04:31:12;;;;;;;;;0.00;0.00;;;;;;;;5074915;27;46968;-91
2022/02/14 04:33:37;;;;;;;;;0.00;0.00;;;;;;;;5075540;27;45379;-92
2022/02/14 04:36:02;;;;;;;;;0.00;0.00;;;;;;;;5076555;27;45408;-91
2022/02/14 04:38:28;;;;;;;;;0.00;0.00;;;;;;;;5074543;27;45575;-91
2022/02/14 04:40:53;;;;;;;;;0.00;0.00;;;;;;;;5074757;27;48427;-91
2022/02/14 04:43:18;;;;;;;;;0.00;0.00;;;;;;;;5076219;27;45407;-91
2022/02/14 04:45:43;;;;;;;;;0.00;0.00;;;;;;;;5075628;27;45435;-91
2022/02/14 04:48:08;;;;;;;;;0.00;0.00;;;;;;;;5075583;27;45814;-91
2022/02/14 04:50:34;;;;;;;;;0.00;0.00;;;;;;;;5075465;27;47236;-91
2022/02/14 04:53:00;;;;;;;;;0.00;0.00;;;;;;;;5075586;27;45548;-90
2022/02/14 04:55:25;;;;;;;;;0.00;0.00;;;;;;;;5097303;27;45400;-91
2022/02/14 04:57:51;;;;;;;;;0.00;0.00;;;;;;;;5091218;27;45619;-90
2022/02/14 05:00:17;;;;;;;;;0.00;0.00;;;;;;;;5086658;27;45421;-91
2022/02/14 05:02:42;;;;;;;;;0.00;0.00;;;;;;;;5071334;27;45975;-91
2022/02/14 05:05:08;;;;;;;;;0.00;0.00;;;;;;;;5088579;27;45434;-91
2022/02/14 05:07:33;;;;;;;;;0.00;0.00;;;;;;;;5072583;27;46866;-90
2022/02/14 05:09:58;;;;;;;;;0.00;0.00;;;;;;;;5074703;27;46444;-89
2022/02/14 05:12:24;;;;;;;;;0.00;0.00;;;;;;;;5093438;27;45550;-91
2022/02/14 05:14:49;;;;;;;;;0.00;0.00;;;;;;;;5072657;27;46731;-91
2022/02/14 05:17:15;;;;;;;;;0.00;0.00;;;;;;;;5073380;27;45632;-90
2022/02/14 05:19:40;;;;;;;;;0.00;0.00;;;;;;;;5077831;27;47651;-91
2022/02/14 05:22:06;;;;;;;;;0.00;0.00;;;;;;;;5091256;27;45270;-90
2022/02/14 05:24:31;;;;;;;;;0.00;0.00;;;;;;;;5074316;27;45307;-90
2022/02/14 05:26:56;;;;;;;;;0.00;0.00;;;;;;;;5093269;27;45259;-90
2022/02/14 05:29:21;;;;;;;;;0.67;0.00;;;;;;;;5091537;27;45568;-90
2022/02/14 05:31:46;;;;;;;;;1.00;0.00;;;;;;;;5074541;27;45652;-91
2022/02/14 05:34:11;;;;;;;;;0.00;0.00;;;;;;;;5079914;27;45327;-90
2022/02/14 05:36:38;;;;;;;;;0.00;0.00;;;;;;;;5074172;27;45660;-90
2022/02/14 05:39:04;;;;;;;;;0.00;0.00;;;;;;;;5095928;27;45508;-91
2022/02/14 05:41:29;;;;;;;;;0.33;0.33;;;;;;;;5078975;27;45651;-91
2022/02/14 05:43:54;;;;;;;;;0.00;0.00;;;;;;;;5075965;27;45726;-91
2022/02/14 05:46:19;;;;;;;;;1.00;0.00;;;;;;;;5078567;27;45542;-91
2022/02/14 05:48:46;;;;;;;;;0.00;0.00;;;;;;;;5099589;27;45551;-91
2022/02/14 05:51:12;;;;;;;;;0.00;0.00;;;;;;;;5081022;27;45491;-91
2022/02/14 05:53:38;;;;;;;;;0.00;0.00;;;;;;;;5072693;27;45525;-91
2022/02/14 05:56:04;;;;;;;;;1.67;0.00;;;;;;;;5090224;27;45226;-89
2022/02/14 05:58:29;;;;;;;;;0.33;0.00;;;;;;;;5076349;27;46939;-90
2022/02/14 06:00:55;;;;;;;;;0.00;0.00;;;;;;;;5076447;27;45434;-90
2022/02/14 06:03:20;;;;;;;;;0.00;0.00;;;;;;;;5093440;27;45292;-92
2022/02/14 06:05:45;;;;;;;;;0.00;0.00;;;;;;;;5091180;27;45316;-92
2022/02/14 06:08:10;;;;;;;;;0.00;0.00;;;;;;;;5090731;27;45587;-91
2022/02/14 06:10:35;;;;;;;;;0.00;0.00;;;;;;;;5093271;27;45468;-91
2022/02/14 06:13:01;;;;;;;;;0.00;0.00;;;;;;;;5075500;27;45475;-90
2022/02/14 06:15:26;;;;;;;;;0.00;0.00;;;;;;;;5092747;27;45338;-92
2022/02/14 06:17:52;;;;;;;;;0.00;0.00;;;;;;;;5092029;27;45431;-91
2022/02/14 06:20:17;;;;;;;;;0.00;0.00;;;;;;;;5074064;27;45493;-92
2022/02/14 06:22:42;;;;;;;;;1.00;0.00;;;;;;;;5075963;27;45407;-92
2022/02/14 06:25:08;;;;;;;;;0.00;0.00;;;;;;;;5075134;27;45352;-92
2022/02/14 06:27:33;;;;;;;;;1.33;0.00;;;;;;;;5074265;27;46861;-91
2022/02/14 06:29:58;;;;;;;;;1.00;1.00;;;;;;;;5074772;27;45440;-91
2022/02/14 06:32:23;;;;;;;;;0.00;0.00;;;;;;;;5074174;27;45419;-91
2022/02/14 06:34:48;;;;;;;;;1.00;1.00;;;;;;;;5073252;27;45446;-92
2022/02/14 06:37:14;;;;;;;;;2.00;0.67;;;;;;;;5074807;27;47875;-91
2022/02/14 06:39:39;;;;;;;;;1.00;1.00;;;;;;;;5091339;27;45429;-91
2022/02/14 06:42:04;;;;;;;;;0.00;0.00;;;;;;;;5074987;27;45439;-90
2022/02/14 06:44:30;;;;;;;;;1.00;1.00;;;;;;;;5074005;27;45482;-90
2022/02/14 06:46:56;;;;;;;;;0.00;0.00;;;;;;;;5072034;27;47402;-91
2022/02/14 06:49:21;;;;;;;;;1.00;0.00;;;;;;;;5075598;27;45494;-91
2022/02/14 06:51:46;;;;;;;;;0.00;0.00;;;;;;;;5090015;27;45509;-91
2022/02/14 06:54:11;;;;;;;;;1.33;1.00;;;;;;;;5092520;27;45454;-91
2022/02/14 06:56:37;;;;;;;;;2.33;1.00;;;;;;;;5090271;27;45496;-91
2022/02/14 06:59:02;;;;;;;;;1.00;0.00;;;;;;;;5088256;27;46175;-91
2022/02/14 07:01:27;;;;;;;;;0.00;0.00;;;;;;;;5081163;27;45576;-92
2022/02/14 07:03:53;;;;;;;;;1.00;1.00;;;;;;;;5114388;27;45907;-92
2022/02/14 07:06:18;;;;;;;;;0.00;0.00;;;;;;;;5094856;27;48166;-91
2022/02/14 07:08:44;;;;;;;;;2.00;1.00;;;;;;;;5066728;27;46165;-92
2022/02/14 07:11:09;;;;;;;;;1.33;1.00;;;;;;;;5091854;27;45487;-91
2022/02/14 07:13:34;;;;;;;;;2.67;1.00;;;;;;;;5088442;27;45851;-91
2022/02/14 07:16:00;;;;;;;;;1.00;1.00;;;;;;;;5074053;27;47951;-91
2022/02/14 07:18:25;;;;;;;;;0.33;0.00;;;;;;;;5067979;28;45601;-92
2022/02/14 07:20:50;;;;;;;;;4.33;1.00;;;;;;;;5081030;27;45460;-91
2022/02/14 07:23:16;;;;;;;;;0.00;0.00;;;;;;;;5094480;27;45462;-91
2022/02/14 07:25:41;;;;;;;;;1.67;0.67;;;;;;;;5076672;27;49708;-90
2022/02/14 07:28:06;;;;;;;;;1.00;1.00;;;;;;;;5114231;27;45247;-92
2022/02/14 07:30:32;;;;;;;;;0.33;0.00;;;;;;;;5090240;27;45809;-88
2022/02/14 07:32:57;;;;;;;;;1.00;1.00;;;;;;;;5085826;27;45555;-89
2022/02/14 07:35:22;;;;;;;;;1.00;1.00;;;;;;;;5087498;27;45398;-89
2022/02/14 07:37:47;;;;;;;;;1.33;0.00;;;;;;;;5083233;27;45554;-88
2022/02/14 07:40:14;;;;;;;;;1.33;1.00;;;;;;;;5073690;27;45446;-88
2022/02/14 07:42:39;;;;;;;;;1.00;0.67;;;;;;;;5090992;27;45936;-88
2022/02/14 07:45:04;;;;;;;;;2.00;0.00;;;;;;;;5093082;27;46913;-88
2022/02/14 07:47:30;;;;;;;;;0.33;0.33;;;;;;;;5087602;27;45485;-88
2022/02/14 07:49:55;;;;;;;;;1.67;1.00;;;;;;;;5078231;27;45470;-88
2022/02/14 07:52:21;;;;;;;;;2.67;1.67;;;;;;;;5096200;27;45367;-88
2022/02/14 07:54:46;;;;;;;;;3.00;2.00;;;;;;;;5095681;27;46418;-88
2022/02/14 07:57:11;;;;;;;;;2.67;1.00;;;;;;;;5107011;27;45382;-88
2022/02/14 07:59:36;;;;;;;;;0.67;0.67;;;;;;;;5110475;27;45742;-87
2022/02/14 08:02:02;;;;;;;;;0.33;0.33;;;;;;;;5093089;27;45360;-87
2022/02/14 08:04:27;;;;;;;;;1.00;1.00;;;;;;;;5129960;27;46646;-92
2022/02/14 08:06:52;;;;;;;;;2.33;1.00;;;;;;;;5113288;27;45613;-88
2022/02/14 08:09:17;;;;;;;;;1.00;1.00;;;;;;;;5100783;27;47703;-89
2022/02/14 08:11:43;;;;;;;;;0.00;0.00;;;;;;;;5121212;27;45431;-88
2022/02/14 08:14:08;;;;;;;;;1.33;0.00;;;;;;;;5114188;27;46396;-88
2022/02/14 08:16:35;;;;;;;;;1.00;1.00;;;;;;;;5113797;27;45848;-88
2022/02/14 08:19:01;;;;;;;;;3.67;2.67;;;;;;;;5114454;27;45427;-88
2022/02/14 08:21:26;;;;;;;;;2.67;2.67;;;;;;;;5100097;27;45401;-88
2022/02/14 08:23:52;;;;;;;;;2.00;1.00;;;;;;;;5106183;27;46102;-88
2022/02/14 08:26:17;;;;;;;;;2.33;1.00;;;;;;;;5124040;27;45451;-88
2022/02/14 08:28:42;;;;;;;;;1.00;1.00;;;;;;;;5111900;27;45470;-88
2022/02/14 08:31:07;;;;;;;;;1.00;1.00;;;;;;;;5126085;27;45399;-88
2022/02/14 08:33:33;;;;;;;;;2.67;0.33;;;;;;;;5100307;27;49594;-88
2022/02/14 08:35:58;;;;;;;;;2.00;2.00;;;;;;;;5110330;27;45424;-88
2022/02/14 08:38:23;;;;;;;;;1.00;1.00;;;;;;;;5100997;27;45349;-88
2022/02/14 08:40:48;;;;;;;;;3.00;1.67;;;;;;;;5113043;27;45355;-88
2022/02/14 08:43:14;;;;;;;;;2.00;2.00;;;;;;;;5110876;27;46287;-88
2022/02/14 08:45:39;;;;;;;;;1.67;1.67;;;;;;;;5092246;27;46199;-88
2022/02/14 08:48:04;;;;;;;;;2.00;2.00;;;;;;;;5110653;27;45358;-88
2022/02/14 08:50:29;;;;;;;;;1.00;0.00;;;;;;;;5095061;27;45494;-88
2022/02/14 08:52:55;;;;;;;;;2.00;1.00;;;;;;;;5092953;27;48187;-88
2022/02/14 08:55:21;;;;;;;;;4.00;1.33;;;;;;;;5099257;27;45376;-88
2022/02/14 08:57:46;;;;;;;;;3.67;1.67;;;;;;;;5109680;27;45530;-88
2022/02/14 09:00:12;;;;;;;;;1.00;1.00;;;;;;;;5110531;27;45484;-87
2022/02/14 09:02:37;;;;;;;;;3.33;2.00;;;;;;;;5093060;27;47554;-88
2022/02/14 09:05:03;;;;;;;;;2.33;1.33;;;;;;;;5091622;27;49253;-89
2022/02/14 09:07:28;;;;;;;;;2.67;1.00;;;;;;;;5102508;27;45556;-88
2022/02/14 09:09:54;;;;;;;;;1.00;1.00;;;;;;;;5093089;27;45708;-88
2022/02/14 09:12:19;;;;;;;;;2.00;0.67;;;;;;;;5093789;27;47995;-88
2022/02/14 09:14:45;;;;;;;;;1.00;1.00;;;;;;;;5093494;27;45891;-88
2022/02/14 09:17:10;;;;;;;;;4.67;1.00;;;;;;;;5110418;27;45536;-88
2022/02/14 09:19:35;;;;;;;;;7.67;2.00;;;;;;;;5103146;27;45284;-88
2022/02/14 09:22:00;;;;;;;;;1.00;1.00;;;;;;;;5111526;27;45549;-88
2022/02/14 09:24:26;;;;;;;;;2.00;1.00;;;;;;;;5088426;27;45372;-89
2022/02/14 09:26:52;;;;;;;;;3.33;2.00;;;;;;;;5105382;27;45394;-89
2022/02/14 09:29:18;;;;;;;;;1.67;1.33;;;;;;;;5091923;27;45343;-88
2022/02/14 09:31:43;;;;;;;;;2.67;1.67;;;;;;;;5111657;27;46092;-88
2022/02/14 09:34:09;;;;;;;;;2.00;2.00;;;;;;;;5107738;27;45535;-88
2022/02/14 09:36:34;;;;;;;;;2.33;1.33;;;;;;;;5103723;27;45613;-88
2022/02/14 09:39:00;;;;;;;;;1.00;1.00;;;;;;;;5118985;27;45440;-88
2022/02/14 09:41:26;;;;;;;;;3.33;3.33;;;;;;;;5111895;27;45596;-88
2022/02/14 09:43:51;;;;;;;;;3.00;1.33;;;;;;;;5128530;27;45472;-88
2022/02/14 09:46:17;;;;;;;;;1.33;1.00;;;;;;;;5085120;27;45573;-87
2022/02/14 09:48:42;;;;;;;;;1.33;1.00;;;;;;;;5096616;27;45453;-88
2022/02/14 09:51:08;;;;;;;;;2.67;1.00;;;;;;;;5087220;27;48065;-88
2022/02/14 09:53:34;;;;;;;;;2.00;1.00;;;;;;;;5099825;27;45582;-88
2022/02/14 09:55:59;;;;;;;;;1.33;1.33;;;;;;;;5092921;27;45543;-88
2022/02/14 09:58:25;;;;;;;;;2.67;2.00;;;;;;;;5113092;27;45575;-89
2022/02/14 10:00:50;;;;;;;;;1.00;1.00;;;;;;;;5109878;27;46207;-88
2022/02/14 10:03:15;;;;;;;;;1.67;1.33;;;;;;;;5089197;27;45348;-88
2022/02/14 10:05:42;;;;;;;;;3.00;0.67;;;;;;;;5108397;27;45370;-89
2022/02/14 10:08:07;;;;;;;;;3.67;1.67;;;;;;;;5085027;27;46749;-89
2022/02/14 10:10:32;;;;;;;;;4.00;2.67;;;;;;;;5094550;27;47908;-89
2022/02/14 10:13:01;;;;;;;;;3.00;1.00;;;;;;;;5089392;27;45915;-88
2022/02/14 10:15:27;;;;;;;;;2.00;0.67;;;;;;;;5097175;27;45519;-88
2022/02/14 10:17:53;;;;;;;;;2.00;1.00;;;;;;;;5087292;27;45419;-88
2022/02/14 10:20:19;;;;;;;;;1.00;1.00;;;;;;;;5109578;27;46845;-88
2022/02/14 10:22:52;;;;;;;;;4.00;2.00;;;;;;;;5092389;27;45870;-89
2022/02/14 10:25:24;;;;;;;;;2.33;2.00;;;;;;;;5087361;27;45574;-89
2022/02/14 10:27:49;;;;;;;;;2.00;1.00;;;;;;;;5108476;27;45464;-89
2022/02/14 10:30:15;;;;;;;;;2.33;1.00;;;;;;;;5108561;27;45482;-89
2022/02/14 10:32:53;;;;;;;;;0.00;0.00;;;;;;;;5105608;27;45487;-89
2022/02/14 10:35:18;;;;;;;;;1.00;1.00;;;;;;;;5106029;27;45446;-88
2022/02/14 10:37:44;;;;;;;;;5.00;1.00;;;;;;;;5114099;27;45336;-89
2022/02/14 10:40:10;;;;;;;;;3.00;2.00;;;;;;;;5113226;27;45500;-89
2022/02/14 10:42:36;;;;;;;;;2.67;1.00;;;;;;;;5099223;27;45496;-89
2022/02/14 10:45:09;;;;;;;;;0.33;0.33;;;;;;;;5112575;27;45435;-88
2022/02/14 10:47:35;;;;;;;;;1.00;1.00;;;;;;;;5096658;27;45533;-89
2022/02/14 10:50:00;;;;;;;;;4.00;2.00;;;;;;;;5113087;27;46432;-89
2022/02/14 10:52:31;;;;;;;;;1.00;1.00;;;;;;;;5097624;27;45326;-89
2022/02/14 10:54:56;;;;;;;;;2.33;1.33;;;;;;;;5096223;27;45467;-89
2022/02/14 10:57:25;;;;;;;;;1.00;1.00;;;;;;;;5095978;27;45870;-89
2022/02/14 10:59:57;;;;;;;;;1.67;0.00;;;;;;;;5112296;27;45478;-89
2022/02/14 11:02:22;;;;;;;;;2.00;2.00;;;;;;;;5110166;27;45453;-89
2022/02/14 11:04:48;;;;;;;;;1.33;1.00;;;;;;;;5097178;27;45446;-89
2022/02/14 11:07:14;;;;;;;;;1.33;1.33;;;;;;;;5101946;27;45651;-89
2022/02/14 11:09:43;;;;;;;;;1.00;1.00;;;;;;;;5106661;27;45777;-89
2022/02/14 11:12:09;;;;;;;;;2.00;1.00;;;;;;;;5112190;27;45735;-89
2022/02/14 11:14:35;;;;;;;;;2.00;2.00;;;;;;;;5112156;27;45372;-89
2022/02/14 11:17:01;;;;;;;;;2.33;1.00;;;;;;;;5094451;27;45520;-89
2022/02/14 11:19:27;;;;;;;;;0.00;0.00;;;;;;;;5120495;27;46858;-89
2022/02/14 11:21:53;;;;;;;;;3.00;1.00;;;;;;;;5112355;27;45728;-89
2022/02/14 11:24:24;;;;;;;;;3.67;2.33;;;;;;;;5095469;27;45498;-89
2022/02/14 11:27:09;;;;;;;;;1.00;1.00;;;;;;;;5114277;27;45398;-89
2022/02/14 11:29:41;;;;;;;;;1.00;1.00;;;;;;;;5092992;27;47072;-90
2022/02/14 11:32:19;;;;;;;;;1.00;1.00;;;;;;;;5077811;27;45490;-89
2022/02/14 11:34:58;;;;;;;;;1.00;1.00;;;;;;;;5087413;27;45872;-90
2022/02/14 11:37:24;;;;;;;;;1.33;1.00;;;;;;;;5100733;27;45344;-89
2022/02/14 11:39:49;;;;;;;;;1.00;1.00;;;;;;;;5095015;27;47257;-90
2022/02/14 11:42:14;;;;;;;;;2.33;1.33;;;;;;;;5104571;27;45264;-90
2022/02/14 11:44:41;;;;;;;;;4.33;3.00;;;;;;;;5129047;27;44768;-87
2022/02/14 11:47:08;;;;;;;;;2.33;2.00;;;;;;;;5131300;27;44753;-88
2022/02/14 11:49:35;;;;;;;;;3.33;1.00;;;;;;;;5116422;27;47128;-87
2022/02/14 11:52:00;;;;;;;;;3.00;1.00;;;;;;;;5113873;27;45478;-86
2022/02/14 11:54:40;;;;;;;;;1.00;1.00;;;;;;;;5127906;27;45740;-87
2022/02/14 11:57:43;;;;;;;;;3.00;1.00;;;;;;;;5101441;27;45487;-88
2022/02/14 12:00:12;;;;;;;;;3.00;1.00;;;;;;;;4994331;28;47326;-86
2022/02/14 12:02:37;;;;;;;;;1.67;1.00;;;;;;;;4997214;28;45554;-89
2022/02/14 12:05:03;;;;;;;;;5.00;1.00;;;;;;;;5011976;28;45294;-89
2022/02/14 12:07:34;;;;;;;;;0.00;0.00;;;;;;;;4996108;28;45314;-86
2022/02/14 12:10:03;;;;;;;;;0.33;0.00;;;;;;;;4992252;28;48349;-86
2022/02/14 12:12:43;;;;;;;;;1.00;1.00;;;;;;;;4992733;28;45677;-87
2022/02/14 12:21:07;;;;;;;;;1.33;0.00;;;;;;;;5011558;28;45439;-86
2022/02/14 12:23:35;;;;;;;;;1.00;1.00;;;;;;;;5010852;28;45492;-87
2022/02/14 12:26:00;;;;;;;;;3.67;2.00;;;;;;;;5010180;28;45795;-87
2022/02/14 12:28:26;;;;;;;;;1.00;1.00;;;;;;;;5012635;28;45450;-86
2022/02/14 12:30:52;;;;;;;;;1.00;1.00;;;;;;;;4993155;28;48077;-88
2022/02/14 12:33:19;;;;;;;;;2.00;1.00;;;;;;;;5006866;27;45504;-86
2022/02/14 12:35:46;;;;;;;;;1.67;0.00;;;;;;;;5085824;27;45553;-86
2022/02/14 12:38:11;;;;;;;;;1.67;1.67;;;;;;;;5103808;27;45662;-86
2022/02/14 12:40:55;;;;;;;;;3.00;2.00;;;;;;;;5109791;27;46366;-86
2022/02/14 12:43:27;;;;;;;;;1.00;1.00;;;;;;;;5113395;27;45473;-86
2022/02/14 12:45:53;;;;;;;;;2.00;0.00;;;;;;;;5088158;27;45459;-86
2022/02/14 12:48:33;;;;;;;;;1.67;1.67;;;;;;;;5091877;27;45525;-86
2022/02/14 12:51:04;;;;;;;;;3.00;1.33;;;;;;;;5091162;27;47234;-86
2022/02/14 12:53:33;;;;;;;;;2.00;1.00;;;;;;;;5103176;27;45592;-87
2022/02/14 12:56:13;;;;;;;;;3.67;1.67;;;;;;;;5109985;27;45436;-87
2022/02/14 12:58:50;;;;;;;;;1.00;1.00;;;;;;;;5087867;27;45399;-86
2022/02/14 13:01:16;;;;;;;;;1.00;1.00;;;;;;;;5111558;27;45616;-87
2022/02/14 13:03:41;;;;;;;;;2.00;2.00;;;;;;;;5109704;27;45494;-86
2022/02/14 13:06:07;;;;;;;;;0.00;0.00;;;;;;;;5111718;27;45374;-86
2022/02/14 13:08:32;;;;;;;;;3.00;1.00;;;;;;;;5109377;27;45412;-86
2022/02/14 13:11:00;;;;;;;;;2.00;1.33;;;;;;;;5091799;27;48626;-86
2022/02/14 13:13:33;;;;;;;;;2.00;1.67;;;;;;;;5096964;27;45935;-85
2022/02/14 13:16:00;;;;;;;;;2.67;0.00;;;;;;;;5110749;27;45596;-86
2022/02/14 13:19:00;;;;;;;;;3.33;2.00;;;;;;;;5086266;27;45387;-86
2022/02/14 13:21:28;;;;;;;;;1.00;1.00;;;;;;;;4988952;28;47453;-86
2022/02/14 13:23:55;;;;;;;;;1.00;1.00;;;;;;;;4987208;28;45776;-86
2022/02/14 13:26:22;;;;;;;;;0.67;0.33;;;;;;;;4968483;28;45512;-86
2022/02/14 13:28:49;;;;;;;;;0.67;0.67;;;;;;;;4988045;28;45881;-86
2022/02/14 13:31:24;;;;;;;;;1.00;1.00;;;;;;;;4984071;28;45733;-86
2022/02/14 13:33:50;;;;;;;;;1.00;1.00;;;;;;;;4985940;28;45591;-86
2022/02/14 13:36:16;;;;;;;;;1.00;1.00;;;;;;;;4987448;28;45954;-86
2022/02/14 13:38:41;;;;;;;;;3.67;1.00;;;;;;;;4985316;28;45547;-86
2022/02/14 13:41:10;;;;;;;;;1.00;1.00;;;;;;;;4970117;28;48224;-85
2022/02/14 13:43:38;;;;;;;;;0.33;0.33;;;;;;;;4986067;28;45672;-86
2022/02/14 13:46:04;;;;;;;;;4.00;3.00;;;;;;;;4971019;28;45571;-86
2022/02/14 13:48:29;;;;;;;;;3.67;2.00;;;;;;;;4974813;28;45959;-85
2022/02/14 13:50:54;;;;;;;;;1.33;1.00;;;;;;;;4982854;28;47220;-86
2022/02/14 13:53:20;;;;;;;;;0.75;0.75;;;;;;;;4986047;28;45746;-86
2022/02/14 13:55:59;;;;;;;;;2.00;2.00;;;;;;;;5038182;27;45487;-86
2022/02/14 13:58:25;;;;;;;;;2.67;2.00;;;;;;;;5073461;27;45494;-86
2022/02/14 14:00:50;;;;;;;;;1.00;1.00;;;;;;;;5072631;27;46478;-86
2022/02/14 14:03:17;;;;;;;;;2.67;2.33;;;;;;;;5070075;27;45290;-86
2022/02/14 14:05:43;;;;;;;;;1.00;0.67;;;;;;;;5089789;27;45614;-86
2022/02/14 14:08:09;;;;;;;;;0.67;0.33;;;;;;;;5087622;27;45413;-86
2022/02/14 14:10:42;;;;;;;;;2.33;1.00;;;;;;;;5073915;27;46657;-86
2022/02/14 14:13:09;;;;;;;;;2.00;2.00;;;;;;;;5076517;27;45467;-86
2022/02/14 14:15:34;;;;;;;;;1.00;1.00;;;;;;;;5076672;27;45486;-86
2022/02/14 14:18:00;;;;;;;;;2.00;2.00;;;;;;;;5073398;27;45902;-86
2022/02/14 14:20:25;;;;;;;;;1.00;1.00;;;;;;;;5085492;27;46526;-85
2022/02/14 14:22:51;;;;;;;;;1.67;0.33;;;;;;;;5093470;27;45476;-86
2022/02/14 14:25:16;;;;;;;;;3.67;1.00;;;;;;;;5077695;27;45484;-85
2022/02/14 14:27:43;;;;;;;;;3.00;2.00;;;;;;;;5072827;27;45495;-86
2022/02/14 14:30:09;;;;;;;;;2.33;1.00;;;;;;;;5071160;27;47117;-86
2022/02/14 14:32:34;;;;;;;;;1.00;1.00;;;;;;;;5076191;27;45819;-86
2022/02/14 14:34:59;;;;;;;;;1.00;1.00;;;;;;;;5093643;27;45485;-86
2022/02/14 14:37:25;;;;;;;;;0.00;0.00;;;;;;;;5076455;27;45551;-86
2022/02/14 14:39:50;;;;;;;;;0.00;0.00;;;;;;;;5069494;28;48068;-86
2022/02/14 14:42:15;;;;;;;;;1.67;1.00;;;;;;;;5075409;27;45648;-86
2022/02/14 14:44:43;;;;;;;;;0.67;0.33;;;;;;;;5091325;27;45662;-86